Weather observations for the past three days for
Temple, Draughon-Miller Central Texas Regional Airport
Metric (Imperial)
Date Time (cdt) Wind (kph) Vis. (km) Weather Sky Cond. Temperature (ºC) Relative Humidity Wind Chill (°C) Heat Index (°C) Pressure Precipitation (cm)
Air Dwpt 6 hour altimeter (cm) sea level (mb) 1 hr 3 hr 6 hr
Max. Min.
10 05:51 S 15 0.00 Fair CLR 20 18.3 90% 75.84 1010.0
10 04:51 S 19 0.00 Fair CLR 20.6 18.9 90% 75.82 1009.9
10 03:51 S 17 0.00 Fair CLR 20.6 18.3 87% 75.79 1009.5
10 02:51 S 19 0.00 Fair CLR 21.1 17.8 82% 75.79 1009.4
10 01:51 S 17 0.00 Fair CLR 21.1 17.8 82% 75.84 1010.0
10 00:51 S 13 0.00 Fair CLR 22.2 18.3 31.1 22.2 79% 75.82 1009.7
09 23:51 S 13 0.00 Fair CLR 22.8 18.9 79% 75.82 1009.7
09 22:51 S 13 0.00 Fair CLR 23.9 20.6 82% 24 75.82 1009.7
09 21:51 S 7 0.00 Fair CLR 25 19.4 71% 26 75.77 1009.0
09 20:51 SE 11 0.00 Fair CLR 25.6 19.4 69% 27 75.69 1008.2
09 19:51 SE 13 0.00 Fair CLR 27.8 20 63% 29 75.64 1007.5
09 18:51 SE 6 0.00 Fair CLR 31.1 17.2 33.3 28.9 43% 32 75.64 1007.2
09 17:51 NE 7 0.00 Fair CLR 31.7 17.8 43% 32 75.62 1006.9
09 16:51 Calm 0.00 Fair CLR 32.2 17.8 42% 33 75.64 1007.2
09 15:51 Vrbl 6 0.00 Fair CLR 32.8 18.3 42% 34 75.67 1007.8
09 14:51 SW 11 0.00 Fair CLR 31.7 18.3 45% 33 75.74 1008.6
09 13:51 NW 13 0.00 Fair CLR 31.1 18.9 48% 32 75.79 1009.4
09 12:51 Calm 0.00 A Few Clouds FEW034 31.1 20 31.1 20 52% 33 75.84 1010.1
09 11:51 Vrbl 6 0.00 Fair CLR 27.2 20 65% 29 75.9 1010.8
09 10:51 NW 11 0.00 Fair CLR 27.2 20.6 67% 29 75.9 1010.7
09 09:51 N 11 0.00 Overcast OVC011 23.3 20.6 85% 75.87 1010.8
09 08:51 NW 7 0.00 Mostly Cloudy BKN005 22.2 22.2 100% 75.82 1010.0
09 07:51 S 22 0.00 Overcast OVC001 21.1 21.1 100% 75.69 1008.3
09 06:51 S 13 0.00 Mostly Cloudy BKN003 20 20 21.7 20 100% 75.74 1009.0 0.03
09 05:51 NW 17 0.00 Overcast OVC001 20.6 20.6 100% 75.9 1010.8 0.03
09 04:51 Calm 0.00 Overcast OVC002 21.7 21.1 96% 75.87 1010.6
09 03:51 Calm 0.00 Overcast OVC004 21.7 21.7 100% 75.87 1010.8
09 02:51 S 11 0.00 Overcast FEW009 SCT047 OVC055 21.7 21.1 96% 75.84 1010.5
09 01:51 S 7 0.00 Overcast OVC020 21.7 21.1 96% 75.87 1010.8
09 00:51 Calm 0.00 Overcast OVC018 20 20 23.3 18.9 100% 75.82 1009.8
08 23:51 N 7 0.00 A Few Clouds FEW016 18.9 18.3 96% 75.82 1009.9
08 22:51 Calm 0.00 Fair CLR 20 19.4 96% 75.79 1009.4
08 21:51 Calm 0.00 Fair CLR 21.1 20 93% 75.72 1008.5
08 20:51 SE 13 0.00 Overcast OVC070 22.2 20 87% 75.69 1008.1
08 19:51 SE 11 0.00 Overcast OVC070 22.8 20.6 87% 75.69 1008.1
08 18:51 SE 11 0.00 Overcast FEW019 OVC065 23.3 20 23.3 20 82% 75.69 1008.4
08 17:51 SE 13 0.00 Mostly Cloudy SCT015 BKN065 23.3 19.4 79% 75.72 1008.6
08 16:51 SE 11 0.00 Overcast BKN013 OVC019 22.8 19.4 81% 75.74 1009.0
08 15:51 SE 13 0.00 Overcast OVC009 21.7 18.9 84% 75.82 1010.0
08 14:51 SE 7 0.00 Overcast OVC009 20.6 18.3 87% 75.87 1010.8
08 13:51 SE 9 0.00 Overcast OVC009 20.6 17.8 84% 75.92 1011.4
08 12:51 E 13 0.00 Overcast OVC011 20 17.8 20 15 87% 75.97 1012.0
08 11:51 SE 6 0.00 Overcast OVC018 19.4 16.7 84% 76.02 1013.0
08 10:51 SE 9 0.00 Overcast OVC018 19.4 16.7 84% 76.05 1013.3
08 09:51 E 6 0.00 Overcast OVC018 18.3 16.1 87% 76.05 1013.1
08 08:51 SE 6 0.00 Overcast OVC018 16.7 15 90% 76.1 1013.8
08 07:51 Calm 0.00 Overcast OVC022 15.6 14.4 93% 76.1 1013.8
08 06:51 SE 9 0.00 Mostly Cloudy FEW023 BKN050 BKN085 15 13.9 15 12.8 93% 76.05 1013.3
08 05:51 Calm 0.00 Overcast OVC026 15 14.4 96% 76.12 1014.1
08 04:51 N 7 0.00 Overcast OVC028 15 13.9 93% 76.17 1014.8
08 03:51 N 6 0.00 Overcast OVC028 14.4 13.3 93% 76.12 1014.2
08 02:51 N 7 0.00 Mostly Cloudy BKN024 13.9 13.3 96% 76.1 1014.1
08 01:51 NW 6 0.00 Fair CLR 13.3 12.2 93% 76.17 1015.1
08 00:51 NW 7 0.00 Fair CLR 13.3 12.8 18.9 13.3 97% 76.2 1015.3
07 23:51 NW 6 0.00 Fair CLR 14.4 12.8 90% 76.23 1015.7
07 22:51 NW 6 0.00 Fair CLR 14.4 12.8 90% 76.23 1015.7
07 21:51 NE 7 0.00 Fair CLR 15 12.8 87% 76.12 1014.5
07 20:51 N 7 0.00 Fair CLR 16.1 12.8 81% 76.12 1014.2
07 19:51 N 7 0.00 Fair CLR 17.2 13.3 78% 76.2 1015.3
07 18:51 E 7 0.00 Fair CLR 18.9 12.8 18.9 17.2 68% 76.17 1014.9
07 17:51 N 6 0.00 Fair CLR 18.9 12.2 65% 76.23 1015.6
07 16:51 NE 11 0.00 A Few Clouds FEW120 18.9 11.1 61% 76.23 1015.5
07 15:51 E 6 0.00 Fair CLR 18.3 11.1 63% 76.3 1016.6
07 14:51 E 6 0.00 Fair CLR 18.3 11.1 63% 76.35 1017.3
07 13:51 NE 11 0.00 Fair CLR 17.2 10.6 65% 76.38 1017.7
07 12:51 N 17 0.00 Fair CLR 17.2 10.6 18.3 13.3 65% 76.33 1017.2
07 11:51 NE 11 0.00 Fair CLR 17.8 10.6 63% 76.48 1018.8
07 10:51 NE 17 0.00 Fair CLR 16.7 10 65% 76.45 1018.7
07 09:51 NE 15 0.00 Fair CLR 15.6 10.6 72% 76.48 1019.1
07 08:51 N 24 G 33 0.00 Fair CLR 13.9 11.1 83% 76.43 1018.1
07 07:51 N 26 0.00 Mostly Cloudy BKN014 13.3 11.1 87% 76.43 1018.3
07 06:51 N 20 0.00 Overcast BKN010 BKN014 OVC029 13.9 11.7 14.4 13.9 87% 76.4 1017.8
Date Time (cdt) Wind (kph) Vis. (km) Weather Sky Cond. Air Dwpt Max. Min. Relative Humidity Wind Chill (°C) Heat Index (°C) altimeter (cm) sea level (mb) 1 hr 3 hr 6 hr
6 hour
Temperature (ºC) Pressure Precipitation (cm)